createdAt,value
2022-10-02T00:04:27.769Z,14.96
2022-10-02T00:09:34.345Z,14.92
2022-10-02T00:14:40.211Z,14.90
2022-10-02T00:19:41.778Z,14.85
2022-10-02T00:24:46.378Z,14.91
2022-10-02T00:29:49.964Z,14.88
2022-10-02T00:35:03.700Z,14.84
2022-10-02T00:40:40.642Z,14.85
2022-10-02T00:46:13.218Z,14.81
2022-10-02T00:51:31.668Z,14.79
2022-10-02T00:56:45.313Z,14.78
2022-10-02T01:01:54.435Z,14.78
2022-10-02T01:06:56.527Z,14.72
2022-10-02T01:11:58.415Z,14.79
2022-10-02T01:17:01.326Z,14.73
2022-10-02T01:22:38.866Z,14.72
2022-10-02T01:27:40.538Z,14.69
2022-10-02T01:32:52.509Z,14.73
2022-10-02T01:37:55.849Z,14.74
2022-10-02T01:43:11.171Z,14.68
2022-10-02T01:48:37.114Z,14.65
2022-10-02T01:53:47.401Z,14.64
2022-10-02T01:59:29.885Z,14.61
2022-10-02T02:05:00.041Z,14.57
2022-10-02T02:10:16.841Z,14.55
2022-10-02T02:16:03.714Z,14.53
2022-10-02T02:21:21.950Z,14.49
2022-10-02T02:26:25.370Z,14.44
2022-10-02T02:31:38.065Z,14.36
2022-10-02T02:36:44.833Z,14.33
2022-10-02T02:42:00.837Z,14.27
2022-10-02T02:47:12.768Z,14.29
2022-10-02T02:52:20.834Z,14.31
2022-10-02T02:57:32.595Z,14.30
2022-10-02T03:02:34.523Z,14.28
2022-10-02T03:07:36.169Z,14.27
2022-10-02T03:12:59.461Z,14.23
2022-10-02T03:18:20.231Z,14.18
2022-10-02T03:23:36.086Z,14.08
2022-10-02T03:28:55.542Z,13.99
2022-10-02T03:34:00.944Z,13.94
2022-10-02T03:39:24.100Z,13.92
2022-10-02T03:44:26.898Z,13.89
2022-10-02T03:49:28.893Z,13.82
2022-10-02T03:54:35.965Z,13.71
2022-10-02T03:59:55.578Z,13.60
2022-10-02T04:05:17.757Z,13.51
2022-10-02T04:10:24.905Z,13.43
2022-10-02T04:15:39.461Z,13.42
2022-10-02T04:20:49.353Z,13.26
2022-10-02T04:25:57.895Z,13.24
2022-10-02T04:31:01.442Z,13.13
2022-10-02T04:36:40.549Z,13.03
2022-10-02T04:41:59.497Z,12.96
2022-10-02T04:47:13.012Z,12.97
2022-10-02T04:52:37.709Z,12.93
2022-10-02T04:57:51.742Z,12.91
2022-10-02T05:03:17.318Z,12.80
2022-10-02T05:08:43.687Z,12.81
2022-10-02T05:14:33.592Z,12.85
2022-10-02T05:19:57.499Z,12.91
2022-10-02T05:25:21.406Z,12.97
2022-10-02T05:30:23.162Z,12.95
2022-10-02T05:35:31.945Z,12.94
2022-10-02T05:40:42.577Z,12.98
2022-10-02T05:45:52.939Z,13.01
2022-10-02T05:51:08.918Z,13.06
2022-10-02T05:56:18.605Z,13.06
2022-10-02T06:01:27.801Z,13.29
2022-10-02T06:06:46.041Z,13.34
2022-10-02T06:11:59.752Z,13.55
2022-10-02T06:17:04.105Z,13.70
2022-10-02T06:22:19.857Z,13.88
2022-10-02T06:27:38.589Z,14.09
2022-10-02T06:33:09.528Z,14.28
2022-10-02T06:38:45.508Z,14.41
2022-10-02T06:44:02.746Z,14.64
2022-10-02T06:49:36.707Z,14.69
2022-10-02T06:55:12.279Z,14.91
2022-10-02T07:00:18.520Z,15.10
2022-10-02T07:06:01.756Z,15.21
2022-10-02T07:11:18.317Z,15.42
2022-10-02T07:16:25.569Z,15.52
2022-10-02T07:21:33.076Z,15.73
2022-10-02T07:26:54.154Z,15.79
2022-10-02T07:32:21.913Z,15.83
2022-10-02T07:37:51.325Z,15.84
2022-10-02T07:43:02.296Z,15.89
2022-10-02T07:48:23.954Z,15.95
2022-10-02T07:53:32.152Z,16.03
2022-10-02T07:58:54.799Z,16.03
2022-10-02T08:04:03.880Z,15.97
2022-10-02T08:09:22.792Z,15.92
2022-10-02T08:14:40.481Z,15.88
2022-10-02T08:19:51.366Z,15.92
2022-10-02T08:25:03.218Z,16.01
2022-10-02T08:30:08.589Z,16.02
2022-10-02T08:35:19.562Z,16.13
2022-10-02T08:40:30.458Z,16.15
2022-10-02T08:45:47.798Z,16.19
2022-10-02T08:51:26.930Z,16.23
2022-10-02T08:56:50.065Z,16.27
2022-10-02T09:02:17.101Z,16.40
2022-10-02T09:07:40.760Z,16.51
2022-10-02T09:13:22.730Z,16.63
2022-10-02T09:18:36.376Z,16.75
2022-10-02T09:24:00.001Z,16.83
2022-10-02T09:29:28.232Z,16.91
2022-10-02T09:35:02.196Z,17.05
2022-10-02T09:40:18.220Z,17.14
2022-10-02T09:45:25.757Z,17.21
2022-10-02T09:50:56.429Z,17.13
2022-10-02T09:56:20.500Z,17.22
2022-10-02T10:01:34.999Z,17.37
2022-10-02T10:06:54.443Z,17.44
2022-10-02T10:11:59.253Z,17.54
2022-10-02T10:17:19.584Z,17.57
2022-10-02T10:22:49.666Z,17.60
2022-10-02T10:28:06.037Z,17.73
2022-10-02T10:33:08.530Z,17.85
2022-10-02T10:38:35.212Z,17.83
2022-10-02T10:43:58.470Z,17.73
2022-10-02T10:49:18.530Z,17.74
2022-10-02T10:54:44.799Z,17.70
2022-10-02T11:00:11.570Z,17.66
2022-10-02T11:05:51.536Z,17.63
2022-10-02T11:10:53.013Z,17.80
2022-10-02T11:16:07.956Z,17.89
2022-10-02T11:21:12.600Z,17.93
2022-10-02T11:26:58.640Z,17.95
2022-10-02T11:32:35.307Z,17.87
2022-10-02T11:37:54.963Z,17.92
2022-10-02T11:43:46.644Z,17.96
2022-10-02T11:48:48.218Z,17.96
2022-10-02T11:54:20.545Z,17.87
2022-10-02T12:00:04.299Z,17.92
2022-10-02T12:05:40.941Z,17.90
2022-10-02T12:11:05.007Z,17.94
2022-10-02T12:16:48.699Z,17.87
2022-10-02T12:22:36.653Z,17.86
2022-10-02T12:28:06.024Z,17.81
2022-10-02T12:33:33.193Z,17.71
2022-10-02T12:38:42.665Z,17.72
2022-10-02T12:44:14.002Z,17.56
2022-10-02T12:49:34.404Z,17.35
2022-10-02T12:54:53.119Z,17.18
2022-10-02T13:00:37.673Z,17.03
2022-10-02T13:06:04.688Z,16.91
2022-10-02T13:11:24.600Z,16.89
2022-10-02T13:17:17.020Z,16.79
2022-10-02T13:22:31.952Z,16.82
2022-10-02T13:28:13.672Z,16.77
2022-10-02T13:33:47.500Z,16.50
2022-10-02T13:39:08.062Z,16.29
2022-10-02T13:44:48.792Z,16.14
2022-10-02T13:50:06.733Z,16.03
2022-10-02T13:55:26.153Z,15.98
2022-10-02T14:00:37.244Z,15.94
2022-10-02T14:05:43.988Z,15.88
2022-10-02T14:10:45.570Z,15.86
2022-10-02T14:16:25.509Z,15.83
2022-10-02T14:21:31.086Z,15.71
2022-10-02T14:26:38.477Z,15.75
2022-10-02T14:32:02.607Z,15.68
2022-10-02T14:37:32.245Z,15.66
2022-10-02T14:42:55.192Z,15.63
2022-10-02T14:48:30.653Z,15.60
2022-10-02T14:53:44.085Z,15.57
2022-10-02T14:59:10.476Z,15.56
2022-10-02T15:04:30.131Z,15.52
2022-10-02T15:09:50.754Z,15.47
2022-10-02T15:15:10.581Z,15.49
2022-10-02T15:20:20.303Z,15.47
2022-10-02T15:25:52.904Z,15.42
2022-10-02T15:31:24.403Z,15.42
2022-10-02T15:36:55.537Z,15.37
2022-10-02T15:42:03.032Z,15.30
2022-10-02T15:47:17.540Z,15.27
2022-10-02T15:52:40.963Z,15.19
2022-10-02T15:57:48.802Z,15.11
2022-10-02T16:03:09.041Z,15.10
2022-10-02T16:08:35.045Z,15.06
2022-10-02T16:13:47.194Z,15.06
2022-10-02T16:19:11.952Z,15.03
2022-10-02T16:24:38.738Z,15.06
2022-10-02T16:29:52.507Z,15.03
2022-10-02T16:34:57.027Z,15.00
2022-10-02T16:40:03.274Z,14.94
2022-10-02T16:45:10.943Z,14.89
2022-10-02T16:50:29.403Z,14.79
2022-10-02T16:55:40.532Z,14.73
2022-10-02T17:00:57.086Z,14.72
2022-10-02T17:06:27.316Z,14.70
2022-10-02T17:11:31.600Z,14.71
2022-10-02T17:16:55.747Z,14.69
2022-10-02T17:22:09.903Z,14.66
2022-10-02T17:27:26.650Z,14.64
2022-10-02T17:32:40.212Z,14.64
2022-10-02T17:38:00.556Z,14.63
2022-10-02T17:43:11.313Z,14.61
2022-10-02T17:48:28.201Z,14.60
2022-10-02T17:53:59.844Z,14.60
2022-10-02T17:59:26.117Z,14.56
2022-10-02T18:04:56.922Z,14.52
2022-10-02T18:10:16.528Z,14.51
2022-10-02T18:15:27.127Z,14.49
2022-10-02T18:20:48.140Z,14.42
2022-10-02T18:26:01.981Z,14.45
2022-10-02T18:31:28.838Z,14.40
2022-10-02T18:36:40.740Z,14.39
2022-10-02T18:42:17.402Z,14.38
2022-10-02T18:47:47.194Z,14.37
2022-10-02T18:52:57.939Z,14.33
2022-10-02T18:58:21.642Z,14.37
2022-10-02T19:04:03.957Z,14.35
2022-10-02T19:09:08.757Z,14.40
2022-10-02T19:14:21.119Z,14.41
2022-10-02T19:19:24.425Z,14.38
2022-10-02T19:24:31.645Z,14.41
2022-10-02T19:29:48.592Z,14.38
2022-10-02T19:35:07.344Z,14.44
2022-10-02T19:40:21.799Z,14.40
2022-10-02T19:45:30.469Z,14.41
2022-10-02T19:50:43.159Z,14.45
2022-10-02T19:55:49.676Z,14.46
2022-10-02T20:00:53.021Z,14.49
2022-10-02T20:06:00.929Z,14.49
2022-10-02T20:11:10.477Z,14.50
2022-10-02T20:16:39.132Z,14.50
2022-10-02T20:22:11.234Z,14.50
2022-10-02T20:27:22.613Z,14.48
2022-10-02T20:32:33.945Z,14.49
2022-10-02T20:37:37.072Z,14.52
2022-10-02T20:42:58.475Z,14.54
2022-10-02T20:49:06.326Z,14.50
2022-10-02T20:54:12.416Z,14.52
2022-10-02T20:59:45.172Z,14.51
2022-10-02T21:05:19.452Z,14.47
2022-10-02T21:10:42.658Z,14.51
2022-10-02T21:16:07.700Z,14.49
2022-10-02T21:21:55.876Z,14.48
2022-10-02T21:27:27.063Z,14.49
2022-10-02T21:32:49.969Z,14.51
2022-10-02T21:38:33.285Z,14.52
2022-10-02T21:43:53.658Z,14.53
2022-10-02T21:49:16.780Z,14.49
2022-10-02T21:54:49.102Z,14.45
2022-10-02T22:00:21.854Z,14.43
2022-10-02T22:05:48.578Z,14.46
2022-10-02T22:11:05.576Z,14.49
2022-10-02T22:16:25.068Z,14.50
2022-10-02T22:21:32.471Z,14.46
2022-10-02T22:26:56.183Z,14.45
2022-10-02T22:32:17.683Z,14.41
2022-10-02T22:37:40.029Z,14.33
2022-10-02T22:42:49.937Z,14.31
2022-10-02T22:48:07.192Z,14.27
2022-10-02T22:53:31.816Z,14.23
2022-10-02T22:58:46.589Z,14.24
2022-10-02T23:03:56.301Z,14.20
2022-10-02T23:09:18.149Z,14.18
2022-10-02T23:14:44.164Z,14.19
2022-10-02T23:19:54.016Z,14.17
2022-10-02T23:25:21.917Z,14.09
2022-10-02T23:30:23.899Z,14.07
2022-10-02T23:36:05.158Z,13.98
2022-10-02T23:41:34.550Z,13.94
2022-10-02T23:47:02.884Z,13.90
2022-10-02T23:52:31.203Z,13.86
2022-10-02T23:57:54.218Z,13.83
